Time;durP1;ratioP1;P1;durP2;ratioP2;P2;SDS_P1;SDS_P2;PMS_P1;PMS_P2;Temp;Humidity;BMP_temperature;BMP_pressure;BME280_temperature;BME280_humidity;BME280_pressure;Samples;Min_cycle;Max_cycle;Signal;HPM_P1;HPM_P2
2021/08/05 00:00:31;;;;;;;6.17;5.10;;;;;;;20.65;71.13;100192.45;1696811;84;21119;-59
2021/08/05 00:02:57;;;;;;;;;;;;;;;20.66;71.18;100185.94;1704366;84;21593;-60
2021/08/05 00:05:23;;;;;;;9.18;6.90;;;;;;;20.66;71.19;100190.55;1689739;84;20160;-60
2021/08/05 00:07:49;;;;;;;5.47;4.92;;;;;;;20.57;71.63;100185.59;1685664;84;21130;-59
2021/08/05 00:10:16;;;;;;;6.10;5.60;;;;;;;20.58;71.76;100187.20;1675252;84;21470;-60
2021/08/05 00:12:41;;;;;;;;;;;;;;;20.63;71.77;100180.25;1702763;83;21126;-60
2021/08/05 00:15:10;;;;;;;5.45;4.95;;;;;;;20.64;71.69;100179.16;1705444;84;20132;-60
2021/08/05 00:17:36;;;;;;;5.53;5.12;;;;;;;20.64;71.99;100180.52;1674287;84;21078;-60
2021/08/05 00:20:07;;;;;;;5.05;4.70;;;;;;;20.65;72.11;100176.20;1690140;84;21132;-61
2021/08/05 00:22:33;;;;;;;5.92;5.50;;;;;;;20.66;72.18;100173.75;1685213;84;21027;-60
2021/08/05 00:25:00;;;;;;;5.00;4.70;;;;;;;20.66;72.03;100168.34;1686833;84;21019;-61
2021/08/05 00:27:25;;;;;;;;;;;;;;;20.67;72.06;100165.92;1689215;83;21575;-63
2021/08/05 00:29:52;;;;;;;5.97;5.57;;;;;;;20.68;72.05;100159.44;1683372;84;20235;-60
2021/08/05 00:32:18;;;;;;;5.50;5.00;;;;;;;20.64;72.32;100161.02;1690493;84;21098;-61
2021/08/05 00:34:44;;;;;;;6.08;5.22;;;;;;;20.65;72.37;100157.24;1685768;84;21090;-61
2021/08/05 00:37:11;;;;;;;5.50;5.03;;;;;;;20.67;72.29;100157.80;1667769;84;21105;-59
2021/08/05 00:39:39;;;;;;;5.78;5.37;;;;;;;20.67;72.42;100153.73;1691432;83;21094;-58
2021/08/05 00:42:05;;;;;;;6.17;5.42;;;;;;;20.66;72.21;100153.44;1696284;84;21001;-61
2021/08/05 00:44:33;;;;;;;6.78;6.28;;;;;;;20.65;72.47;100149.66;1688976;84;21494;-61
2021/08/05 00:47:01;;;;;;;5.67;5.37;;;;;;;20.62;72.52;100148.27;1684464;84;21003;-60
2021/08/05 00:49:29;;;;;;;7.90;7.15;;;;;;;20.58;72.61;100153.36;1668096;84;21022;-59
2021/08/05 00:51:56;;;;;;;7.12;6.55;;;;;;;20.55;72.69;100150.34;1694863;84;21564;-61
2021/08/05 00:54:22;;;;;;;6.03;5.53;;;;;;;20.55;72.68;100150.34;1685894;84;21086;-60
2021/08/05 00:56:49;;;;;;;7.03;6.37;;;;;;;20.54;72.66;100147.38;1684760;84;21075;-62
2021/08/05 00:59:15;;;;;;;6.20;5.80;;;;;;;20.52;72.82;100151.69;1690128;84;21150;-60
2021/08/05 01:01:50;;;;;;;7.83;7.12;;;;;;;20.53;72.74;100145.73;1681278;83;20995;-62
2021/08/05 01:04:16;;;;;;;10.95;6.03;;;;;;;20.51;72.88;100143.82;1692694;84;21011;-60
2021/08/05 01:07:01;;;;;;;7.05;6.45;;;;;;;20.49;73.03;100145.43;1695247;84;21019;-60
2021/08/05 01:09:55;;;;;;;7.55;6.42;;;;;;;20.47;73.17;100147.58;1695695;84;20999;-61
2021/08/05 01:12:40;;;;;;;6.37;5.97;;;;;;;20.41;73.42;100149.44;1684844;84;21011;-61
2021/08/05 01:15:24;;;;;;;8.35;7.75;;;;;;;20.37;73.84;100142.91;1677317;84;21097;-60
2021/08/05 01:18:07;;;;;;;8.05;7.35;;;;;;;20.33;74.06;100144.50;1692935;84;21056;-60
2021/08/05 01:20:41;;;;;;;8.50;7.70;;;;;;;20.28;74.57;100138.23;1637569;85;21571;-61
2021/08/05 01:23:41;;;;;;;7.62;6.92;;;;;;;20.27;74.64;100137.42;1624780;86;21038;-60
2021/08/05 01:26:25;;;;;;;8.10;7.42;;;;;;;20.28;74.72;100140.39;1626361;86;21027;-61
2021/08/05 01:28:53;;;;;;;7.22;6.35;;;;;;;20.28;74.80;100137.69;1634133;86;21074;-60
2021/08/05 01:31:22;;;;;;;9.85;8.20;;;;;;;20.27;74.92;100137.94;1634898;86;21101;-61
2021/08/05 01:33:52;;;;;;;8.80;8.13;;;;;;;20.29;75.30;100137.17;1651651;85;21020;-60
2021/08/05 01:36:21;;;;;;;6.80;6.35;;;;;;;20.31;75.38;100140.43;1681512;84;21106;-61
2021/08/05 01:38:48;;;;;;;9.15;7.72;;;;;;;20.32;75.24;100137.44;1683357;84;21588;-60
2021/08/05 01:41:16;;;;;;;7.37;6.72;;;;;;;20.34;75.31;100132.62;1690009;84;21022;-61
2021/08/05 01:43:47;;;;;;;7.72;7.12;;;;;;;20.34;75.25;100129.91;1687905;84;21023;-60
2021/08/05 01:46:14;;;;;;;7.67;6.97;;;;;;;20.37;75.26;100134.78;1683387;84;21544;-60
2021/08/05 01:48:41;;;;;;;7.25;6.65;;;;;;;20.35;75.29;100132.88;1659795;85;21073;-60
2021/08/05 01:51:09;;;;;;;7.35;6.80;;;;;;;20.35;75.19;100130.72;1670838;84;21042;-60
2021/08/05 01:53:38;;;;;;;7.47;6.78;;;;;;;20.34;75.17;100129.07;1689377;84;21092;-60
2021/08/05 01:56:06;;;;;;;7.67;6.80;;;;;;;20.36;75.01;100132.33;1688252;84;21521;-59
2021/08/05 01:58:32;;;;;;;7.22;6.58;;;;;;;20.37;74.90;100132.08;1673696;84;21008;-60
2021/08/05 02:00:58;;;;;;;6.75;6.25;;;;;;;20.37;74.90;100133.43;1655642;84;20996;-61
2021/08/05 02:03:25;;;;;;;7.90;7.15;;;;;;;20.37;74.99;100123.95;1661613;84;21629;-60
2021/08/05 02:06:12;;;;;;;6.00;5.45;;;;;;;20.39;74.66;100123.70;1639319;84;21111;-60
2021/08/05 02:11:53;;;;;;;7.03;6.40;;;;;;;20.42;74.46;100118.59;1788839;78;22518;-62
2021/08/05 02:14:22;;;;;;;7.30;6.70;;;;;;;20.38;74.49;100123.41;1649559;86;21103;-61
2021/08/05 02:16:50;;;;;;;6.62;6.12;;;;;;;20.37;74.54;100124.50;1680918;84;21069;-61
2021/08/05 02:19:18;;;;;;;7.35;6.75;;;;;;;20.36;74.60;100123.70;1679126;85;21086;-62
2021/08/05 02:21:48;;;;;;;8.83;7.10;;;;;;;20.35;74.51;100117.99;1647531;86;21105;-62
2021/08/05 02:24:18;;;;;;;9.15;6.30;;;;;;;20.33;74.58;100125.55;1687415;83;21559;-61
2021/08/05 02:26:46;;;;;;;6.37;5.78;;;;;;;20.33;74.56;100123.39;1690606;84;21090;-61
2021/08/05 02:29:12;;;;;;;7.08;6.47;;;;;;;20.35;74.46;100126.66;1700987;84;21525;-61
2021/08/05 02:31:39;;;;;;;7.08;6.42;;;;;;;20.36;74.43;100116.09;1677608;84;21035;-61
2021/08/05 02:34:08;;;;;;;7.00;6.35;;;;;;;20.35;74.30;100121.24;1680996;84;21007;-61
2021/08/05 02:36:35;;;;;;;6.10;5.50;;;;;;;20.36;74.34;100120.98;1681747;84;20996;-60
2021/08/05 02:39:03;;;;;;;6.67;6.17;;;;;;;20.37;74.28;100115.03;1699627;83;21662;-61
2021/08/05 02:41:30;;;;;;;7.22;6.50;;;;;;;20.40;74.10;100118.59;1700101;83;21002;-61
2021/08/05 02:43:58;;;;;;;6.87;5.97;;;;;;;20.40;74.04;100117.23;1701322;83;21077;-57
2021/08/05 02:46:27;;;;;;;6.83;6.28;;;;;;;20.41;73.88;100117.50;1699706;83;21599;-60
2021/08/05 02:48:58;;;;;;;6.45;6.05;;;;;;;20.42;73.85;100119.14;1698516;83;21034;-61
2021/08/05 02:51:26;;;;;;;6.47;5.87;;;;;;;20.45;73.69;100117.80;1688364;83;21029;-60
2021/08/05 02:53:53;;;;;;;5.97;5.35;;;;;;;20.49;73.80;100114.30;1692608;83;21547;-61
2021/08/05 02:56:21;;;;;;;6.83;6.15;;;;;;;20.52;73.53;100113.78;1672496;83;20987;-60
2021/08/05 02:58:48;;;;;;;6.22;5.50;;;;;;;20.56;73.33;100108.67;1682556;83;21574;-60
2021/08/05 03:01:15;;;;;;;6.65;6.08;;;;;;;20.59;73.60;100110.33;1701922;83;21025;-60
2021/08/05 03:03:42;;;;;;;5.42;5.05;;;;;;;20.85;73.62;100109.69;1690774;83;21018;-61
2021/08/05 03:06:09;;;;;;;6.62;6.12;;;;;;;21.18;72.51;100108.52;1690914;83;21092;-61
2021/08/05 03:08:41;;;;;;;7.10;5.47;;;;;;;21.46;71.28;100112.72;1685233;83;21007;-61
2021/08/05 03:11:09;;;;;;;6.75;6.15;;;;;;;21.67;70.40;100102.73;1684690;84;21081;-61
2021/08/05 03:13:36;;;;;;;6.55;5.97;;;;;;;21.92;69.29;100101.96;1693419;84;21003;-61
2021/08/05 03:16:03;;;;;;;5.55;5.25;;;;;;;22.22;68.49;100096.28;1679106;84;20979;-60
2021/08/05 03:18:29;;;;;;;6.40;5.90;;;;;;;22.55;67.29;100101.73;1679202;84;21022;-60
2021/08/05 03:20:55;;;;;;;5.40;5.00;;;;;;;22.98;66.32;100096.46;1682057;83;21123;-61
2021/08/05 03:23:21;;;;;;;5.95;5.50;;;;;;;23.41;64.30;100094.95;1686504;84;21070;-63
2021/08/05 03:25:47;;;;;;;6.37;5.58;;;;;;;23.73;62.95;100091.52;1687054;84;21481;-63
2021/08/05 03:28:14;;;;;;;6.22;4.78;;;;;;;23.91;60.60;100096.33;1686333;84;21021;-62
2021/08/05 03:30:41;;;;;;;7.37;5.00;;;;;;;23.90;60.09;100098.25;1685870;84;21134;-62
2021/08/05 03:33:07;;;;;;;5.65;5.20;;;;;;;23.92;59.99;100095.77;1693656;84;21030;-61
2021/08/05 03:35:36;;;;;;;6.35;5.15;;;;;;;23.92;60.16;100098.49;1677673;84;21030;-64
2021/08/05 03:38:03;;;;;;;5.42;4.87;;;;;;;23.94;59.32;100096.30;1684947;84;21093;-62
2021/08/05 03:40:29;;;;;;;5.45;5.00;;;;;;;23.89;58.92;100091.16;1701932;84;21034;-60
2021/08/05 03:42:55;;;;;;;5.70;5.15;;;;;;;23.98;59.24;100095.47;1683387;84;21577;-60
2021/08/05 03:45:21;;;;;;;5.62;5.22;;;;;;;24.18;58.97;100091.75;1688418;84;21062;-59
2021/08/05 03:47:48;;;;;;;6.25;3.52;;;;;;;24.44;58.17;100088.81;1678029;84;21105;-59
2021/08/05 03:50:14;;;;;;;5.28;4.78;;;;;;;24.55;57.18;100088.20;1687374;84;21014;-60
2021/08/05 03:52:40;;;;;;;5.62;5.12;;;;;;;24.36;56.96;100088.89;1690144;84;21587;-59
2021/08/05 03:55:15;;;;;;;5.67;5.17;;;;;;;24.01;57.60;100088.08;1683149;84;21651;-59
2021/08/05 03:57:43;;;;;;;6.08;5.45;;;;;;;23.69;58.39;100095.34;1693617;84;20939;-60
2021/08/05 04:00:14;;;;;;;5.40;5.00;;;;;;;23.40;58.92;100096.06;1680613;84;21509;-59
2021/08/05 04:02:40;;;;;;;5.17;4.78;;;;;;;23.20;59.95;100096.15;1646919;87;21042;-60
2021/08/05 04:05:08;;;;;;;5.28;4.97;;;;;;;23.13;60.55;100093.72;1657328;86;21041;-59
2021/08/05 04:07:38;;;;;;;6.83;5.80;;;;;;;23.18;60.10;100103.22;1641067;86;21110;-58
2021/08/05 04:10:06;;;;;;;8.13;4.78;;;;;;;23.18;60.04;100099.70;1641443;86;21010;-59
2021/08/05 04:12:32;;;;;;;4.90;4.60;;;;;;;23.16;59.73;100099.16;1634932;86;21113;-59
2021/08/05 04:14:59;;;;;;;4.97;4.58;;;;;;;23.21;59.97;100097.23;1638797;86;21566;-60
2021/08/05 04:17:26;;;;;;;5.85;5.28;;;;;;;23.27;58.93;100100.75;1635495;85;21588;-61
2021/08/05 04:19:53;;;;;;;5.87;5.37;;;;;;;23.25;58.99;100098.30;1634600;86;21029;-60
2021/08/05 04:22:19;;;;;;;4.97;4.50;;;;;;;23.05;59.26;100096.47;1629353;86;21070;-61
2021/08/05 04:24:45;;;;;;;5.20;4.90;;;;;;;22.81;60.15;100103.58;1622705;86;21029;-60
2021/08/05 04:27:11;;;;;;;6.15;5.65;;;;;;;22.55;60.82;100096.85;1634916;86;21526;-61
2021/08/05 04:29:37;;;;;;;5.72;5.33;;;;;;;22.38;61.60;100099.02;1630776;86;21023;-60
2021/08/05 04:32:04;;;;;;;5.35;4.95;;;;;;;22.24;62.09;100097.38;1645771;86;21029;-59
2021/08/05 04:34:30;;;;;;;5.58;4.92;;;;;;;22.18;62.72;100091.69;1631650;85;21081;-59
2021/08/05 04:36:57;;;;;;;5.17;4.87;;;;;;;22.12;62.76;100090.87;1615265;87;21097;-59
2021/08/05 04:39:23;;;;;;;5.97;5.47;;;;;;;22.10;63.10;100083.54;1626358;87;21023;-59
2021/08/05 04:41:50;;;;;;;5.70;5.30;;;;;;;22.13;63.06;100085.17;1627050;87;21090;-53
2021/08/05 04:44:16;;;;;;;6.30;5.75;;;;;;;22.18;62.81;100082.98;1614853;87;21574;-59
2021/08/05 04:46:42;;;;;;;5.80;5.30;;;;;;;22.23;62.82;100080.28;1610909;87;20991;-58
2021/08/05 04:49:09;;;;;;;5.87;5.47;;;;;;;22.39;62.58;100080.30;1622585;87;21039;-58
2021/08/05 04:51:35;;;;;;;6.20;5.60;;;;;;;22.60;62.08;100077.81;1586069;88;21006;-59
2021/08/05 04:54:03;;;;;;;5.83;5.08;;;;;;;22.93;61.18;100080.45;1612805;87;21079;-59
2021/08/05 04:56:31;;;;;;;7.10;5.58;;;;;;;23.44;60.61;100073.20;1607812;87;21021;-59
2021/08/05 04:58:59;;;;;;;5.70;5.20;;;;;;;24.11;58.81;100081.77;1590467;88;21042;-60
2021/08/05 05:01:26;;;;;;;6.62;5.70;;;;;;;24.70;56.66;100073.05;1609766;87;21088;-59
2021/08/05 05:03:52;;;;;;;6.87;5.45;;;;;;;25.10;55.42;100075.59;1610687;88;21177;-59
2021/08/05 05:06:20;;;;;;;5.62;5.28;;;;;;;25.28;54.85;100073.50;1599301;88;21021;-59
2021/08/05 05:08:46;;;;;;;6.30;5.80;;;;;;;25.29;54.54;100071.01;1604990;88;21221;-59
2021/08/05 05:11:12;;;;;;;6.97;6.45;;;;;;;25.15;54.24;100077.71;1604219;88;21545;-58
2021/08/05 05:13:40;;;;;;;6.55;5.75;;;;;;;25.00;54.34;100065.64;1632320;86;21089;-60
2021/08/05 05:16:07;;;;;;;6.30;5.67;;;;;;;24.83;55.07;100070.20;1627304;86;21616;-60
2021/08/05 05:18:33;;;;;;;6.58;5.97;;;;;;;24.73;55.58;100073.02;1607485;87;21756;-60
2021/08/05 05:21:01;;;;;;;10.23;7.22;;;;;;;24.65;56.37;100073.10;1583504;88;21014;-60
2021/08/05 05:23:28;;;;;;;8.68;6.85;;;;;;;24.61;55.81;100077.51;1569072;87;21008;-58
2021/08/05 05:25:56;;;;;;;8.80;6.87;;;;;;;24.50;55.42;100079.48;1567493;90;21591;-59
2021/08/05 05:28:22;;;;;;;7.03;6.42;;;;;;;24.22;55.65;100081.11;1560288;90;21067;-58
2021/08/05 05:30:49;;;;;;;9.85;6.80;;;;;;;23.99;56.77;100088.11;1563666;90;21077;-60
2021/08/05 05:33:18;;;;;;;8.60;7.53;;;;;;;23.81;57.02;100083.61;1561658;89;21170;-61
2021/08/05 05:35:45;;;;;;;7.40;6.72;;;;;;;23.64;57.56;100083.97;1522922;90;21126;-59
2021/08/05 05:38:13;;;;;;;8.15;7.42;;;;;;;23.56;57.99;100076.38;1578767;89;21093;-58
2021/08/05 05:40:40;;;;;;;9.05;6.70;;;;;;;23.54;58.34;100077.20;1577646;89;21053;-59
2021/08/05 05:43:08;;;;;;;8.40;7.10;;;;;;;23.54;58.29;100080.48;1589013;88;21203;-59
2021/08/05 05:45:36;;;;;;;8.93;7.80;;;;;;;23.50;58.48;100078.87;1596571;88;21542;-59
2021/08/05 05:48:04;;;;;;;9.73;8.10;;;;;;;23.47;58.44;100077.53;1556972;90;21032;-60
2021/08/05 05:50:31;;;;;;;10.98;6.83;;;;;;;23.48;57.97;100082.42;1568099;90;21579;-59
2021/08/05 05:52:59;;;;;;;9.10;7.90;;;;;;;23.43;58.39;100082.44;1576914;89;21135;-59
2021/08/05 05:55:27;;;;;;;8.13;7.33;;;;;;;23.42;59.29;100088.43;1564762;89;21071;-58
2021/08/05 05:57:54;;;;;;;9.28;7.37;;;;;;;23.51;59.13;100094.91;1624620;86;20989;-58
2021/08/05 06:00:20;;;;;;;7.78;6.60;;;;;;;23.63;58.78;100084.23;1608008;87;21070;-59
2021/08/05 06:02:46;;;;;;;7.58;6.75;;;;;;;23.66;58.39;100085.05;1625318;86;21040;-60
2021/08/05 06:05:12;;;;;;;13.15;8.03;;;;;;;23.67;58.71;100082.02;1611764;86;21127;-60
2021/08/05 06:07:48;;;;;;;11.00;7.80;;;;;;;23.77;57.99;100084.41;1579982;88;22203;-59
2021/08/05 06:10:17;;;;;;;10.00;8.33;;;;;;;23.84;57.74;100087.66;1553325;90;21025;-60
2021/08/05 06:12:43;;;;;;;11.70;8.10;;;;;;;23.92;58.20;100082.16;1589340;86;21401;-60
2021/08/05 06:15:12;;;;;;;8.73;7.83;;;;;;;24.14;57.20;100083.09;1621319;86;21082;-60
2021/08/05 06:17:43;;;;;;;11.28;7.30;;;;;;;24.36;56.15;100079.36;1623667;86;21067;-60
2021/08/05 06:20:13;;;;;;;8.58;7.75;;;;;;;24.58;55.86;100070.73;1644312;85;21034;-61
2021/08/05 06:22:41;;;;;;;7.42;6.60;;;;;;;24.88;55.83;100070.11;1645418;85;21079;-67
2021/08/05 06:25:10;;;;;;;10.95;7.95;;;;;;;25.24;54.43;100068.34;1652348;85;21038;-67
2021/08/05 06:27:37;;;;;;;11.90;7.80;;;;;;;25.51;53.19;100064.18;1644165;85;21021;-67
2021/08/05 06:30:07;;;;;;;8.90;6.50;;;;;;;25.62;52.60;100064.30;1645851;85;21101;-68
2021/08/05 06:32:34;;;;;;;9.13;6.70;;;;;;;25.75;52.09;100061.34;1650156;85;21066;-70
2021/08/05 06:35:01;;;;;;;7.20;6.30;;;;;;;25.93;51.30;100057.02;1654666;85;21262;-71
2021/08/05 06:37:28;;;;;;;8.15;6.62;;;;;;;26.13;51.05;100068.17;1652955;85;21618;-71
2021/08/05 06:39:54;;;;;;;6.75;6.08;;;;;;;26.44;51.59;100065.69;1615629;88;21102;-70
2021/08/05 06:42:21;;;;;;;9.98;7.45;;;;;;;26.75;50.69;100061.06;1634397;86;21065;-72
2021/08/05 06:44:48;;;;;;;7.65;7.00;;;;;;;27.13;49.26;100067.67;1628382;86;20994;-71
2021/08/05 06:47:14;;;;;;;6.83;6.10;;;;;;;27.31;47.61;100061.30;1643101;85;21006;-70
2021/08/05 06:49:40;;;;;;;7.22;6.47;;;;;;;27.26;47.30;100063.34;1647938;85;20990;-70
2021/08/05 06:52:07;;;;;;;8.28;6.70;;;;;;;27.33;47.09;100057.70;1638389;85;21014;-70
2021/08/05 06:54:33;;;;;;;7.17;6.53;;;;;;;27.45;46.96;100057.16;1645929;85;20997;-69
2021/08/05 06:56:59;;;;;;;8.33;6.62;;;;;;;27.59;46.39;100061.20;1674342;84;20972;-71
2021/08/05 06:59:25;;;;;;;8.25;7.33;;;;;;;27.76;45.88;100064.11;1647302;85;21387;-71
2021/08/05 07:01:51;;;;;;;6.47;5.87;;;;;;;27.86;45.33;100053.47;1649196;85;20983;-70
2021/08/05 07:04:17;;;;;;;6.60;5.92;;;;;;;27.96;45.25;100050.49;1641569;86;20982;-70
2021/08/05 07:06:44;;;;;;;6.62;6.00;;;;;;;28.07;45.01;100045.58;1649424;85;20988;-69
2021/08/05 07:09:10;;;;;;;5.78;5.17;;;;;;;28.10;45.05;100036.71;1638034;85;21490;-70
2021/08/05 07:11:38;;;;;;;7.17;6.40;;;;;;;28.04;44.76;100037.97;1643932;85;20987;-70
2021/08/05 07:14:05;;;;;;;6.70;6.10;;;;;;;27.92;45.14;100028.96;1649074;85;21047;-70
2021/08/05 07:16:31;;;;;;;6.42;5.92;;;;;;;27.84;45.37;100032.97;1644570;85;21097;-71
2021/08/05 07:18:57;;;;;;;6.62;6.03;;;;;;;27.71;46.11;100020.41;1646575;85;21092;-71
2021/08/05 07:21:23;;;;;;;7.33;5.78;;;;;;;27.63;46.24;100023.08;1644717;85;21003;-72
2021/08/05 07:23:49;;;;;;;5.85;5.30;;;;;;;27.62;46.11;100018.73;1643288;84;21769;-70
2021/08/05 07:26:17;;;;;;;6.92;5.25;;;;;;;27.59;46.16;100016.04;1647829;85;21404;-70
2021/08/05 07:28:43;;;;;;;4.87;4.58;;;;;;;27.64;45.41;100014.56;1635364;85;21526;-69
2021/08/05 07:31:09;;;;;;;5.22;4.72;;;;;;;27.58;45.58;100014.44;1640910;85;21109;-67
2021/08/05 07:33:35;;;;;;;8.05;5.55;;;;;;;27.55;45.53;100006.83;1644559;85;21046;-68
2021/08/05 07:36:02;;;;;;;10.58;5.62;;;;;;;27.61;45.30;100006.95;1643966;85;21068;-68
2021/08/05 07:38:29;;;;;;;6.28;5.65;;;;;;;27.72;45.18;100009.70;1643722;85;20998;-68
2021/08/05 07:40:55;;;;;;;8.80;5.53;;;;;;;27.81;45.92;100005.66;1645752;85;21068;-68
2021/08/05 07:43:22;;;;;;;8.20;6.22;;;;;;;27.80;45.95;100003.22;1646756;85;21533;-62
2021/08/05 07:45:48;;;;;;;6.75;5.72;;;;;;;27.75;45.34;100000.87;1649556;84;21026;-63
2021/08/05 07:48:15;;;;;;;7.55;6.78;;;;;;;27.04;45.11;99896.63;1656200;85;21615;-62
2021/08/05 07:50:41;;;;;;;7.53;6.70;;;;;;;27.51;45.90;100001.73;1643908;85;21052;-63
2021/08/05 07:53:07;;;;;;;5.90;5.40;;;;;;;27.21;45.89;100001.28;1643258;85;21141;-62
2021/08/05 07:55:33;;;;;;;10.05;4.97;;;;;;;27.05;46.30;99998.09;1643201;85;21041;-62
2021/08/05 07:57:59;;;;;;;11.55;6.10;;;;;;;27.03;46.10;99996.77;1662095;85;21507;-62
2021/08/05 08:00:25;;;;;;;18.42;9.35;;;;;;;27.00;46.74;99998.20;1642483;85;21181;-64
2021/08/05 08:02:52;;;;;;;22.55;10.80;;;;;;;27.02;47.27;99993.23;1635815;85;21125;-63
2021/08/05 08:05:18;;;;;;;27.55;11.03;;;;;;;27.10;46.46;100002.06;1628014;85;21069;-62
2021/08/05 08:07:45;;;;;;;31.52;14.70;;;;;;;27.21;45.97;99996.38;1644992;85;21109;-63
2021/08/05 08:10:14;;;;;;;23.35;9.93;;;;;;;27.18;45.97;99995.05;1648113;85;21548;-62
2021/08/05 08:12:41;;;;;;;16.97;9.55;;;;;;;27.06;46.09;99998.33;1652835;84;21014;-63
2021/08/05 08:15:09;;;;;;;7.83;6.83;;;;;;;26.96;46.70;99995.83;1643664;85;21014;-64
2021/08/05 08:17:35;;;;;;;14.83;7.90;;;;;;;26.91;46.93;100000.03;1642446;85;20995;-64
2021/08/05 08:20:04;;;;;;;9.58;6.37;;;;;;;26.90;47.17;99990.20;1646026;85;21018;-64
2021/08/05 08:22:30;;;;;;;14.50;8.90;;;;;;;26.88;47.37;99981.48;1590929;85;21079;-63
2021/08/05 08:24:58;;;;;;;23.95;9.98;;;;;;;26.77;47.84;99987.75;1646703;85;21512;-64
2021/08/05 08:27:24;;;;;;;8.80;7.40;;;;;;;26.69;47.84;99982.98;1642796;85;21474;-64
2021/08/05 08:29:50;;;;;;;10.88;7.12;;;;;;;26.59;48.67;99977.97;1638619;85;21132;-64
2021/08/05 08:32:17;;;;;;;12.70;6.45;;;;;;;26.53;49.13;99979.16;1653041;85;21001;-64
2021/08/05 08:34:43;;;;;;;7.50;5.90;;;;;;;26.61;48.96;99977.11;1657283;84;21558;-64
2021/08/05 08:37:09;;;;;;;11.48;7.97;;;;;;;26.73;48.74;99982.62;1646017;85;21029;-64
2021/08/05 08:39:36;;;;;;;9.25;7.58;;;;;;;26.70;47.95;99991.45;1648976;85;21048;-63
2021/08/05 08:42:02;;;;;;;6.92;6.28;;;;;;;26.60;48.31;99989.17;1648514;85;21658;-64
2021/08/05 08:44:29;;;;;;;10.95;7.60;;;;;;;26.59;48.68;99985.34;1632972;84;20966;-64
2021/08/05 08:46:56;;;;;;;13.80;7.05;;;;;;;26.67;48.32;99987.95;1663727;84;20981;-64
2021/08/05 08:49:24;;;;;;;12.25;7.80;;;;;;;26.72;47.93;99988.65;1666538;85;20985;-64
2021/08/05 08:51:51;;;;;;;7.55;6.95;;;;;;;26.76;47.90;99982.82;1673825;85;21201;-64
2021/08/05 08:54:20;;;;;;;13.13;8.03;;;;;;;26.85;47.79;99978.82;1667522;84;21432;-64
2021/08/05 08:56:48;;;;;;;11.85;8.58;;;;;;;26.93;47.76;99975.36;1671602;84;21106;-64
2021/08/05 08:59:17;;;;;;;10.05;8.10;;;;;;;27.00;47.65;99972.22;1679387;84;20965;-64
2021/08/05 09:01:45;;;;;;;7.20;6.55;;;;;;;26.83;47.97;99937.88;1688635;83;21030;-63
2021/08/05 09:04:11;;;;;;;7.25;6.58;;;;;;;26.90;47.97;99980.09;1683568;83;20975;-63
2021/08/05 09:06:37;;;;;;;7.55;6.87;;;;;;;26.69;47.88;99974.78;1681082;84;20998;-64
2021/08/05 09:09:07;;;;;;;7.53;6.55;;;;;;;26.57;48.67;99970.61;1681867;84;21286;-64
2021/08/05 09:11:34;;;;;;;9.80;7.90;;;;;;;26.56;48.48;99971.73;1681391;84;21006;-63
2021/08/05 09:14:01;;;;;;;8.18;7.47;;;;;;;26.58;48.73;99961.87;1674726;84;21019;-64
2021/08/05 09:16:32;;;;;;;8.33;7.53;;;;;;;26.53;49.03;99965.50;1674242;84;21712;-64
2021/08/05 09:19:15;;;;;;;11.88;8.65;;;;;;;26.44;49.51;99970.62;1669835;84;21027;-64
2021/08/05 09:22:01;;;;;;;11.78;9.28;;;;;;;26.44;49.58;99965.95;1671446;84;22251;-64
2021/08/05 09:24:29;;;;;;;11.12;7.85;;;;;;;26.46;49.95;99971.13;1673141;84;21073;-66
2021/08/05 09:26:59;;;;;;;12.15;8.55;;;;;;;26.50;49.65;99968.83;1677596;84;21011;-64
2021/08/05 09:29:25;;;;;;;10.82;8.08;;;;;;;26.56;49.81;99964.91;1689961;84;20995;-64
2021/08/05 09:32:00;;;;;;;13.38;9.43;;;;;;;26.71;49.46;99964.34;1683365;84;20971;-64
2021/08/05 09:34:36;;;;;;;11.37;8.93;;;;;;;26.82;49.04;99963.58;1678151;82;21114;-64
2021/08/05 09:37:07;;;;;;;11.73;8.93;;;;;;;26.82;49.13;99963.02;1673438;84;21046;-64
2021/08/05 09:39:37;;;;;;;9.83;8.13;;;;;;;26.82;49.54;99966.31;1677537;84;20973;-64
2021/08/05 09:42:15;;;;;;;10.15;8.55;;;;;;;26.84;49.37;99963.52;1676552;84;20975;-64
2021/08/05 09:44:47;;;;;;;11.53;10.30;;;;;;;26.89;48.83;99976.28;1684570;84;20995;-64
2021/08/05 09:47:21;;;;;;;10.30;9.28;;;;;;;26.72;49.40;99960.52;1682793;84;20958;-64
2021/08/05 09:49:52;;;;;;;9.75;8.70;;;;;;;26.69;49.58;99959.74;1672869;84;21055;-64
2021/08/05 09:52:33;;;;;;;11.45;8.78;;;;;;;26.76;49.26;99952.75;1668255;84;20975;-64
2021/08/05 09:55:04;;;;;;;11.10;8.63;;;;;;;26.78;49.53;99946.41;1671720;84;20978;-63
2021/08/05 09:57:37;;;;;;;9.68;7.97;;;;;;;26.86;49.81;99956.37;1679369;84;21015;-64
2021/08/05 10:00:08;;;;;;;8.05;7.10;;;;;;;26.96;49.94;99952.88;1673535;84;20979;-62
2021/08/05 10:02:52;;;;;;;10.05;6.90;;;;;;;27.09;49.00;99949.05;1671341;84;20991;-63
2021/08/05 10:05:22;;;;;;;7.35;6.53;;;;;;;27.13;48.56;99950.05;1670710;84;20967;-63
2021/08/05 10:07:59;;;;;;;6.35;5.72;;;;;;;27.12;48.88;99946.48;1678297;84;20986;-64
2021/08/05 10:10:28;;;;;;;7.65;6.55;;;;;;;27.13;48.79;99947.31;1677281;84;20954;-63
2021/08/05 10:12:59;;;;;;;7.83;7.10;;;;;;;27.21;49.18;99941.67;1679957;82;21049;-63
2021/08/05 10:15:28;;;;;;;11.45;7.33;;;;;;;27.32;49.06;99943.08;1683240;84;21022;-63
2021/08/05 10:18:02;;;;;;;8.35;7.17;;;;;;;27.36;49.08;99935.86;1683978;84;21038;-64
2021/08/05 10:20:30;;;;;;;8.03;7.10;;;;;;;27.38;48.86;99937.72;1686398;84;21702;-64
2021/08/05 10:22:58;;;;;;;7.70;7.00;;;;;;;27.36;49.14;99938.02;1689296;84;21085;-64
2021/08/05 10:25:27;;;;;;;15.05;7.90;;;;;;;27.40;49.07;99933.31;1687080;84;21050;-64
2021/08/05 10:27:57;;;;;;;8.93;6.55;;;;;;;27.47;49.27;99932.32;1691617;83;21497;-64
2021/08/05 10:30:25;;;;;;;9.28;7.72;;;;;;;27.65;49.06;99921.73;1681118;84;21178;-64
2021/08/05 10:32:54;;;;;;;7.97;7.05;;;;;;;27.74;48.50;99923.94;1682338;84;21553;-64
2021/08/05 10:35:22;;;;;;;8.18;7.28;;;;;;;27.64;48.28;99911.89;1683025;84;21444;-64
2021/08/05 10:37:50;;;;;;;13.40;7.12;;;;;;;27.54;49.05;99913.53;1686155;84;21018;-64
2021/08/05 10:40:19;;;;;;;8.15;7.35;;;;;;;27.51;49.07;99914.15;1688153;84;21483;-64
2021/08/05 10:42:48;;;;;;;9.15;7.17;;;;;;;27.49;49.40;99908.18;1686651;84;20991;-64
2021/08/05 10:45:17;;;;;;;12.15;7.35;;;;;;;27.56;49.85;99902.52;1681145;82;22250;-64
2021/08/05 10:47:49;;;;;;;9.20;6.65;;;;;;;27.64;48.98;99900.95;1685192;84;20988;-64
2021/08/05 10:50:20;;;;;;;7.35;6.65;;;;;;;27.73;48.18;99900.44;1688519;83;21026;-64
2021/08/05 10:52:51;;;;;;;6.67;5.05;;;;;;;27.72;47.74;99902.91;1677785;84;21089;-64
2021/08/05 10:55:37;;;;;;;6.42;5.58;;;;;;;27.66;48.28;99895.96;1670757;84;21608;-64
2021/08/05 10:58:17;;;;;;;8.33;6.30;;;;;;;27.71;48.39;99903.25;1656736;84;20987;-64
2021/08/05 11:01:02;;;;;;;7.00;5.95;;;;;;;27.79;48.26;99903.84;1691703;84;21011;-65
2021/08/05 11:03:40;;;;;;;7.97;6.30;;;;;;;27.80;47.43;99898.59;1688193;84;21058;-65
2021/08/05 11:06:09;;;;;;;7.55;6.67;;;;;;;27.83;47.92;99898.55;1680455;84;21102;-65
2021/08/05 11:08:35;;;;;;;10.60;6.47;;;;;;;27.91;47.37;99904.66;1659502;85;21054;-64
2021/08/05 11:11:25;;;;;;;7.12;6.42;;;;;;;27.96;47.46;99889.45;1682919;84;21055;-64
2021/08/05 11:14:02;;;;;;;6.00;5.50;;;;;;;27.91;47.56;99895.06;1656338;83;21043;-67
2021/08/05 11:16:55;;;;;;;6.28;5.83;;;;;;;27.88;47.33;99887.47;1674078;84;21020;-64
2021/08/05 11:19:27;;;;;;;9.63;6.55;;;;;;;27.82;47.58;99884.06;1677712;84;21087;-65
2021/08/05 11:21:55;;;;;;;6.12;5.50;;;;;;;27.83;47.92;99880.18;1665207;84;21540;-65
2021/08/05 11:24:51;;;;;;;5.60;5.15;;;;;;;27.86;47.77;99884.20;1675116;83;21046;-64
2021/08/05 11:27:23;;;;;;;6.70;5.58;;;;;;;27.94;47.72;99876.08;1666189;84;20995;-65
2021/08/05 11:29:49;;;;;;;6.30;4.80;;;;;;;28.08;47.28;99877.89;1667825;84;21090;-64
2021/08/05 11:32:27;;;;;;;6.10;4.45;;;;;;;28.14;47.01;99864.29;1641394;84;21074;-64
2021/08/05 11:35:01;;;;;;;4.42;4.10;;;;;;;28.13;46.33;99868.17;1669942;84;21114;-69
2021/08/05 11:37:29;;;;;;;4.50;4.00;;;;;;;28.05;46.86;99861.54;1663246;84;21189;-72